Time;durP1;ratioP1;P1;durP2;ratioP2;P2;SDS_P1;SDS_P2;PMS_P1;PMS_P2;Temp;Humidity;BMP_temperature;BMP_pressure;BME280_temperature;BME280_humidity;BME280_pressure;Samples;Min_cycle;Max_cycle;Signal;HPM_P1;HPM_P2
2023/01/17 00:00:22;;;;;;;8.00;4.95;;;9.10;70.80;;;;;;5007783;28;20033;-75
2023/01/17 00:02:48;;;;;;;6.97;5.05;;;9.10;70.80;;;;;;5024666;28;20512;-78
2023/01/17 00:10:42;;;;;;;9.38;5.68;;;9.10;70.70;;;;;;5025460;28;20072;-76
2023/01/17 00:13:08;;;;;;;8.68;5.32;;;9.10;70.70;;;;;;5025440;28;20065;-76
2023/01/17 00:15:36;;;;;;;6.55;4.80;;;9.10;70.70;;;;;;5025305;28;20025;-76
2023/01/17 00:18:01;;;;;;;7.45;5.47;;;9.10;70.50;;;;;;5007446;28;20125;-75
2023/01/17 00:26:08;;;;;;;8.25;4.95;;;9.10;70.20;;;;;;5006642;28;20030;-77
2023/01/17 01:35:52;;;;;;;6.60;4.72;;;9.00;70.60;;;;;;4984440;28;20130;-76
2023/01/17 01:38:21;;;;;;;5.38;4.40;;;9.00;70.50;;;;;;4984593;28;20042;-74
2023/01/17 01:40:49;;;;;;;5.45;4.28;;;9.00;70.60;;;;;;4984794;28;20034;-76
2023/01/17 01:43:18;;;;;;;6.25;4.70;;;9.00;70.50;;;;;;4983984;28;20031;-75
2023/01/17 01:45:51;;;;;;;8.20;4.90;;;9.00;70.60;;;;;;4971183;28;20030;-76
2023/01/17 01:48:35;;;;;;;5.43;4.30;;;9.00;70.60;;;;;;5022193;28;20538;-75
2023/01/17 01:51:09;;;;;;;5.20;4.22;;;9.00;70.50;;;;;;5017998;28;20495;-76
2023/01/17 01:53:37;;;;;;;6.47;4.30;;;9.00;70.60;;;;;;5026397;28;20060;-77
2023/01/17 01:56:06;;;;;;;6.20;4.60;;;9.00;70.50;;;;;;5026566;28;20059;-76
2023/01/17 01:58:36;;;;;;;5.25;4.13;;;9.00;71.20;;;;;;5026626;28;20411;-76
2023/01/17 02:01:04;;;;;;;7.78;4.60;;;9.00;70.60;;;;;;5008863;28;20037;-76
2023/01/17 02:03:31;;;;;;;7.35;4.65;;;9.00;70.60;;;;;;5026573;28;20603;-76
2023/01/17 02:06:13;;;;;;;6.63;4.80;;;9.00;70.50;;;;;;4989687;28;20361;-76
2023/01/17 02:08:40;;;;;;;6.20;4.57;;;9.00;70.40;;;;;;5025398;28;20033;-76
2023/01/17 02:11:06;;;;;;;6.22;4.28;;;9.00;70.70;;;;;;5008985;28;20037;-76
2023/01/17 02:13:32;;;;;;;6.20;4.22;;;9.00;70.60;;;;;;5025613;28;20405;-78
2023/01/17 02:16:32;;;;;;;6.32;4.82;;;9.00;70.60;;;;;;5008600;28;21388;-76
2023/01/17 02:19:26;;;;;;;6.30;4.55;;;9.10;70.50;;;;;;5026419;28;20100;-76
2023/01/17 02:22:06;;;;;;;8.25;5.07;;;9.00;70.40;;;;;;5008175;28;20050;-77
2023/01/17 02:24:55;;;;;;;6.03;4.43;;;9.10;70.50;;;;;;5008463;28;20034;-76
2023/01/17 02:27:47;;;;;;;6.83;5.17;;;9.00;70.30;;;;;;4984346;28;1212332;-76
2023/01/17 02:30:32;;;;;;;7.00;4.82;;;9.00;70.40;;;;;;5026014;28;20041;-76
2023/01/17 02:33:01;;;;;;;6.70;4.90;;;9.00;70.30;;;;;;5009537;28;20045;-76
2023/01/17 02:35:27;;;;;;;6.57;5.00;;;9.00;70.20;;;;;;5002261;28;20141;-76
2023/01/17 02:38:23;;;;;;;7.15;5.10;;;9.00;70.20;;;;;;5026381;28;20547;-76
2023/01/17 02:41:12;;;;;;;6.85;5.03;;;9.00;70.20;;;;;;5024422;28;20278;-76
2023/01/17 02:43:39;;;;;;;8.82;5.05;;;9.00;70.10;;;;;;5024826;28;20123;-76
2023/01/17 02:46:05;;;;;;;8.15;5.35;;;9.00;70.20;;;;;;5008934;28;20467;-76
2023/01/17 02:48:34;;;;;;;6.40;4.80;;;9.00;70.20;;;;;;5008400;28;20060;-76
2023/01/17 02:51:06;;;;;;;7.95;4.50;;;9.00;70.10;;;;;;5026456;28;20466;-76
2023/01/17 02:53:53;;;;;;;6.75;5.00;;;9.00;70.10;;;;;;5007907;28;20106;-77
2023/01/17 02:56:48;;;;;;;9.85;5.50;;;9.00;70.20;;;;;;5007515;28;20467;-76
2023/01/17 03:00:02;;;;;;;10.02;5.22;;;9.00;70.10;;;;;;5003135;28;20495;-76
2023/01/17 03:02:46;;;;;;;7.15;5.28;;;9.00;70.10;;;;;;4983684;28;20049;-76
2023/01/17 03:05:31;;;;;;;10.35;5.20;;;9.00;70.10;;;;;;4965231;28;20608;-77
2023/01/17 03:07:59;;;;;;;7.22;5.28;;;9.00;70.10;;;;;;4968051;28;20042;-78
2023/01/17 03:10:25;;;;;;;6.93;4.70;;;9.00;70.10;;;;;;4967649;28;20577;-76
2023/01/17 03:12:57;;;;;;;7.65;5.13;;;9.10;70.20;;;;;;4966512;28;20758;-77
2023/01/17 03:15:23;;;;;;;7.35;5.22;;;9.00;70.10;;;;;;4983899;28;20038;-78
2023/01/17 03:17:52;;;;;;;6.82;4.78;;;9.00;70.10;;;;;;4965197;28;20049;-78
2023/01/17 03:20:18;;;;;;;5.82;4.60;;;9.00;70.10;;;;;;4983176;28;20049;-77
2023/01/17 03:22:44;;;;;;;6.25;4.55;;;9.00;70.00;;;;;;4982645;28;20034;-74
2023/01/17 03:25:12;;;;;;;7.60;4.97;;;9.00;70.00;;;;;;4982625;28;20077;-76
2023/01/17 03:27:39;;;;;;;8.23;5.20;;;9.00;69.90;;;;;;4981122;28;20713;-76
2023/01/17 03:30:06;;;;;;;6.72;4.50;;;9.00;69.90;;;;;;4980280;28;20030;-75
2023/01/17 03:32:32;;;;;;;6.75;4.70;;;9.10;70.10;;;;;;4980597;28;20038;-76
2023/01/17 03:34:58;;;;;;;8.23;4.78;;;9.10;70.00;;;;;;4966568;28;20502;-77
2023/01/17 03:37:24;;;;;;;8.50;5.00;;;9.10;69.90;;;;;;4982855;28;20037;-76
2023/01/17 03:39:52;;;;;;;7.38;4.90;;;9.00;69.70;;;;;;5016712;28;20088;-76
2023/01/17 03:42:18;;;;;;;10.18;5.38;;;9.00;69.80;;;;;;5003672;28;20034;-76
2023/01/17 03:44:44;;;;;;;5.40;4.18;;;9.10;69.80;;;;;;5002564;28;20041;-76
2023/01/17 03:47:10;;;;;;;7.35;5.22;;;9.10;69.90;;;;;;5007028;28;20061;-75
2023/01/17 03:49:38;;;;;;;6.30;4.55;;;9.10;69.80;;;;;;5024211;28;20124;-76
2023/01/17 03:52:04;;;;;;;8.05;4.55;;;9.00;69.80;;;;;;5024677;28;20044;-75
2023/01/17 03:54:30;;;;;;;6.95;4.85;;;9.10;69.80;;;;;;5005600;28;20087;-75
2023/01/17 03:56:56;;;;;;;6.88;4.97;;;9.00;69.80;;;;;;5007880;28;20091;-75
2023/01/17 03:59:22;;;;;;;7.00;4.95;;;9.00;69.80;;;;;;4990273;28;20037;-75
2023/01/17 04:01:48;;;;;;;6.50;4.97;;;9.10;69.90;;;;;;5006507;28;20033;-75
2023/01/17 04:04:14;;;;;;;7.55;4.85;;;9.00;69.80;;;;;;5006708;28;20037;-73
2023/01/17 04:06:40;;;;;;;6.93;5.18;;;9.00;69.80;;;;;;5007718;28;20055;-74
2023/01/17 04:09:06;;;;;;;6.35;4.25;;;9.10;69.90;;;;;;5000051;28;20504;-73
2023/01/17 04:11:32;;;;;;;10.02;5.13;;;9.10;70.00;;;;;;5025237;28;20029;-74
2023/01/17 04:13:58;;;;;;;13.88;4.80;;;9.10;69.80;;;;;;5007364;28;20057;-74
2023/01/17 04:16:28;;;;;;;5.30;4.22;;;9.10;69.90;;;;;;5025585;28;20530;-76
2023/01/17 04:18:55;;;;;;;8.07;4.72;;;9.10;69.80;;;;;;5007160;28;20531;-75
2023/01/17 04:21:21;;;;;;;5.68;4.20;;;9.10;69.80;;;;;;5024914;28;20091;-74
2023/01/17 04:23:47;;;;;;;6.35;4.60;;;9.10;69.90;;;;;;5024792;28;20072;-73
2023/01/17 04:26:13;;;;;;;7.35;5.00;;;9.10;70.00;;;;;;5007515;28;20057;-73
2023/01/17 04:28:39;;;;;;;6.57;4.97;;;9.10;70.00;;;;;;5006910;28;20049;-73
2023/01/17 04:31:05;;;;;;;7.57;4.35;;;9.10;70.00;;;;;;5005784;28;20065;-73
2023/01/17 04:33:31;;;;;;;6.25;4.55;;;9.10;70.00;;;;;;5025367;28;20120;-75
2023/01/17 04:35:57;;;;;;;8.82;5.07;;;9.10;69.90;;;;;;5025933;28;20187;-77
2023/01/17 04:38:23;;;;;;;5.97;4.28;;;9.10;70.00;;;;;;5006393;28;20037;-77
2023/01/17 04:40:50;;;;;;;6.97;4.90;;;9.10;70.10;;;;;;5010167;28;20030;-74
2023/01/17 04:43:16;;;;;;;5.40;4.28;;;9.10;70.20;;;;;;5022788;28;20034;-76
2023/01/17 04:45:42;;;;;;;7.60;4.53;;;9.10;70.10;;;;;;5028438;28;20446;-80
2023/01/17 04:48:11;;;;;;;5.85;4.43;;;9.10;70.30;;;;;;5013033;28;20034;-83
2023/01/17 04:50:37;;;;;;;8.05;4.43;;;9.10;70.60;;;;;;5010933;28;20030;-80
2023/01/17 04:53:04;;;;;;;8.82;5.43;;;9.10;71.60;;;;;;5024593;28;20048;-77
2023/01/17 04:55:30;;;;;;;7.60;5.00;;;9.10;71.20;;;;;;5006328;28;20048;-75
2023/01/17 04:57:56;;;;;;;9.85;4.53;;;9.10;71.30;;;;;;5025236;28;20037;-76
2023/01/17 05:00:22;;;;;;;7.22;4.88;;;9.10;71.60;;;;;;5007421;28;20546;-76
2023/01/17 05:02:48;;;;;;;10.63;5.18;;;9.10;71.70;;;;;;5024069;28;20041;-76
2023/01/17 05:05:14;;;;;;;9.40;5.70;;;9.10;72.00;;;;;;5005281;28;20120;-75
2023/01/17 05:07:39;;;;;;;8.77;5.40;;;9.10;72.10;;;;;;5006726;28;20038;-76
2023/01/17 05:10:06;;;;;;;8.25;4.72;;;9.10;72.20;;;;;;5005829;28;20045;-76
2023/01/17 05:12:32;;;;;;;8.38;5.63;;;9.20;72.30;;;;;;5006011;28;20041;-76
2023/01/17 05:14:57;;;;;;;9.52;5.90;;;9.10;72.20;;;;;;5024413;28;20029;-77
2023/01/17 05:17:23;;;;;;;9.05;5.97;;;9.10;72.40;;;;;;5024580;28;20420;-77
2023/01/17 05:19:50;;;;;;;9.68;5.65;;;9.10;72.20;;;;;;5022711;28;20049;-75
2023/01/17 05:22:16;;;;;;;8.57;5.00;;;9.20;72.20;;;;;;5001747;28;20042;-76
2023/01/17 05:24:44;;;;;;;11.75;5.80;;;9.20;72.20;;;;;;5010350;28;20037;-77
2023/01/17 05:27:13;;;;;;;8.43;5.22;;;9.20;72.10;;;;;;5027813;28;20079;-76
2023/01/17 05:29:39;;;;;;;10.70;5.55;;;9.20;72.10;;;;;;5027145;28;20080;-75
2023/01/17 05:32:06;;;;;;;10.45;4.82;;;9.20;72.10;;;;;;5027044;28;20040;-75
2023/01/17 05:34:33;;;;;;;10.93;5.43;;;9.20;72.10;;;;;;5009949;28;20056;-76
2023/01/17 05:36:58;;;;;;;9.98;5.03;;;9.20;72.10;;;;;;5010214;28;20095;-76
2023/01/17 05:39:25;;;;;;;9.13;4.93;;;9.20;72.10;;;;;;5010950;28;20029;-75
2023/01/17 05:41:51;;;;;;;10.02;5.57;;;9.20;72.10;;;;;;5008785;28;20095;-75
2023/01/17 05:44:17;;;;;;;7.63;5.28;;;9.20;72.10;;;;;;4993808;28;20455;-77
2023/01/17 05:46:43;;;;;;;8.90;5.13;;;9.20;72.00;;;;;;5010063;28;20033;-76
2023/01/17 05:49:09;;;;;;;8.32;5.40;;;9.20;71.90;;;;;;5009597;28;20322;-76
2023/01/17 05:51:36;;;;;;;11.73;5.70;;;9.20;71.80;;;;;;5028052;28;20117;-77
2023/01/17 05:54:03;;;;;;;7.35;5.15;;;9.20;71.80;;;;;;4977886;28;20530;-76
2023/01/17 05:56:29;;;;;;;8.23;5.30;;;9.20;71.80;;;;;;5027263;28;20037;-77
2023/01/17 05:58:55;;;;;;;7.53;5.10;;;9.20;71.70;;;;;;4992886;28;20040;-76
2023/01/17 06:01:21;;;;;;;6.55;4.55;;;9.20;71.60;;;;;;5009744;28;20033;-77
2023/01/17 06:03:47;;;;;;;8.40;5.18;;;9.20;71.50;;;;;;5026819;28;20039;-75
2023/01/17 06:06:13;;;;;;;7.40;5.00;;;9.20;71.50;;;;;;5027418;28;20037;-76
2023/01/17 06:08:39;;;;;;;7.70;4.90;;;9.20;71.50;;;;;;5022310;28;20041;-75
2023/01/17 06:11:05;;;;;;;8.18;5.18;;;9.20;71.40;;;;;;5006838;28;20037;-76
2023/01/17 06:13:31;;;;;;;7.13;5.20;;;9.20;71.30;;;;;;5025268;28;20033;-76
2023/01/17 06:16:01;;;;;;;7.38;4.60;;;9.20;71.30;;;;;;5026716;28;20042;-75
2023/01/17 06:18:27;;;;;;;8.60;5.32;;;9.20;71.30;;;;;;5026219;28;20570;-76
2023/01/17 06:20:54;;;;;;;8.00;4.82;;;9.20;71.50;;;;;;5026843;28;20103;-75
2023/01/17 06:23:21;;;;;;;7.75;4.85;;;9.20;71.50;;;;;;5026091;28;20084;-76
2023/01/17 06:25:47;;;;;;;8.73;5.32;;;9.20;71.60;;;;;;5026092;28;20496;-74
2023/01/17 06:28:22;;;;;;;7.82;5.15;;;9.30;71.70;;;;;;5026439;28;20041;-75
2023/01/17 06:30:48;;;;;;;9.18;4.78;;;9.20;71.70;;;;;;5026126;28;20488;-76
2023/01/17 06:33:14;;;;;;;11.25;4.82;;;9.30;71.80;;;;;;5025604;28;20044;-74
2023/01/17 06:35:50;;;;;;;7.00;4.50;;;9.30;72.00;;;;;;5026356;28;20504;-74
2023/01/17 06:38:16;;;;;;;6.72;4.43;;;9.30;72.00;;;;;;5026855;28;20080;-75
2023/01/17 06:40:42;;;;;;;8.10;5.25;;;9.30;72.10;;;;;;5026494;28;20508;-74
2023/01/17 06:43:08;;;;;;;8.32;4.82;;;9.30;72.10;;;;;;5008645;28;20057;-75
2023/01/17 06:45:34;;;;;;;7.25;4.57;;;9.30;72.20;;;;;;5008337;28;20083;-73
2023/01/17 06:48:02;;;;;;;7.50;4.95;;;9.30;72.20;;;;;;5027037;28;20544;-75
2023/01/17 06:50:29;;;;;;;6.80;4.90;;;9.30;72.20;;;;;;5025914;28;20202;-74
2023/01/17 06:52:56;;;;;;;7.78;4.75;;;9.30;72.20;;;;;;5027105;28;20045;-75
2023/01/17 06:55:22;;;;;;;7.88;5.30;;;9.30;72.20;;;;;;5026092;28;20121;-76
2023/01/17 06:57:49;;;;;;;9.35;4.97;;;9.30;72.10;;;;;;5004846;28;20124;-74
2023/01/17 07:00:16;;;;;;;6.35;4.53;;;9.30;72.10;;;;;;5026800;28;20029;-74
2023/01/17 07:02:46;;;;;;;9.73;5.03;;;9.30;72.10;;;;;;5009105;28;20038;-74
2023/01/17 07:05:12;;;;;;;7.95;4.80;;;9.30;72.00;;;;;;5026091;28;20116;-76
2023/01/17 07:07:38;;;;;;;8.50;5.15;;;9.40;72.10;;;;;;5004920;28;20034;-75
2023/01/17 07:10:04;;;;;;;8.48;5.22;;;9.40;72.00;;;;;;5004763;28;20047;-75
2023/01/17 07:12:30;;;;;;;7.03;4.85;;;9.40;72.00;;;;;;4990858;28;20041;-75
2023/01/17 07:14:56;;;;;;;7.72;5.55;;;9.40;72.00;;;;;;5026958;28;20033;-76
2023/01/17 07:17:22;;;;;;;8.20;5.05;;;9.40;72.10;;;;;;5026312;28;20042;-75
2023/01/17 07:19:48;;;;;;;8.88;5.03;;;9.30;72.00;;;;;;5025697;28;20029;-75
2023/01/17 07:22:14;;;;;;;8.38;5.15;;;9.40;71.90;;;;;;5026096;28;20040;-75
2023/01/17 07:24:40;;;;;;;7.75;5.55;;;9.30;72.00;;;;;;5025875;28;20052;-76
2023/01/17 07:27:07;;;;;;;8.35;5.18;;;9.40;72.20;;;;;;5006149;28;20032;-75
2023/01/17 07:29:32;;;;;;;7.22;5.15;;;9.40;72.20;;;;;;5008154;28;20516;-75
2023/01/17 07:31:58;;;;;;;7.68;4.60;;;9.40;72.10;;;;;;5025774;28;20095;-75
2023/01/17 07:34:24;;;;;;;7.93;5.18;;;9.40;72.10;;;;;;5025897;28;20034;-75
2023/01/17 07:36:50;;;;;;;8.05;5.50;;;9.40;72.10;;;;;;5007402;28;20041;-75
2023/01/17 07:39:16;;;;;;;7.18;5.22;;;9.40;72.00;;;;;;5026273;28;20113;-75
2023/01/17 07:41:42;;;;;;;9.45;5.63;;;9.40;71.80;;;;;;5025585;28;20037;-75
2023/01/17 07:44:11;;;;;;;6.10;4.57;;;9.40;72.00;;;;;;5007165;28;20037;-75
2023/01/17 07:46:37;;;;;;;7.10;4.97;;;9.40;72.00;;;;;;5025305;28;20112;-75
2023/01/17 07:49:03;;;;;;;7.90;5.93;;;9.40;72.00;;;;;;5008298;28;20034;-75
2023/01/17 07:51:29;;;;;;;8.68;5.10;;;9.50;72.10;;;;;;5024563;28;20044;-75
2023/01/17 07:53:55;;;;;;;7.65;4.97;;;9.40;72.00;;;;;;5026622;28;20139;-75
2023/01/17 07:56:21;;;;;;;7.65;5.35;;;9.50;72.60;;;;;;5007559;28;20363;-75
2023/01/17 07:58:47;;;;;;;7.82;5.32;;;9.50;72.00;;;;;;5024550;28;20554;-75
2023/01/17 08:01:14;;;;;;;8.65;4.97;;;9.50;72.00;;;;;;5024347;28;20029;-76
2023/01/17 08:03:41;;;;;;;6.50;4.90;;;9.50;74.90;;;;;;5025560;28;20048;-74
2023/01/17 08:06:16;;;;;;;8.68;5.90;;;9.60;76.80;;;;;;5025823;28;20129;-74
2023/01/17 08:08:42;;;;;;;10.77;5.82;;;9.70;75.80;;;;;;5026601;28;20033;-76
2023/01/17 08:11:09;;;;;;;10.40;5.35;;;9.80;76.40;;;;;;5025186;28;20040;-75
2023/01/17 08:13:35;;;;;;;8.40;5.50;;;10.00;76.70;;;;;;5024580;28;20048;-76
2023/01/17 08:16:02;;;;;;;11.40;6.85;;;10.00;76.00;;;;;;5025579;28;20037;-76
2023/01/17 08:18:29;;;;;;;11.77;6.20;;;10.20;75.40;;;;;;5006037;28;20543;-75
2023/01/17 08:20:55;;;;;;;11.40;6.18;;;10.30;75.00;;;;;;5002576;28;20077;-75
2023/01/17 08:23:21;;;;;;;11.45;5.75;;;10.30;74.50;;;;;;5025270;28;20608;-76
2023/01/17 08:25:48;;;;;;;8.23;6.15;;;10.50;74.20;;;;;;5024342;28;20129;-74
2023/01/17 08:28:14;;;;;;;7.80;5.55;;;10.50;73.00;;;;;;5023713;28;20041;-76
2023/01/17 08:30:41;;;;;;;12.65;6.32;;;10.60;73.40;;;;;;5006900;28;20029;-76
2023/01/17 08:33:07;;;;;;;8.93;6.03;;;10.60;72.70;;;;;;5008114;28;20033;-75
2023/01/17 08:35:33;;;;;;;7.88;5.68;;;10.70;72.00;;;;;;5024582;28;20029;-75
2023/01/17 08:38:03;;;;;;;10.93;6.45;;;10.60;71.20;;;;;;5004706;28;20069;-76
2023/01/17 08:40:31;;;;;;;10.85;6.50;;;10.60;70.60;;;;;;4999271;28;20495;-74
2023/01/17 08:42:59;;;;;;;13.13;7.55;;;10.60;70.10;;;;;;5007127;28;20040;-76
2023/01/17 08:45:26;;;;;;;10.95;6.68;;;10.60;69.70;;;;;;5025390;28;20088;-77
2023/01/17 08:47:52;;;;;;;10.98;7.30;;;10.60;69.50;;;;;;5007140;28;20124;-76
2023/01/17 08:50:21;;;;;;;10.73;7.28;;;10.60;69.40;;;;;;5024351;28;20603;-76
2023/01/17 08:52:48;;;;;;;13.93;7.78;;;10.60;69.50;;;;;;5006367;28;20040;-75
2023/01/17 08:55:14;;;;;;;12.65;7.40;;;10.50;69.60;;;;;;5007332;28;20053;-77
2023/01/17 08:57:40;;;;;;;13.35;7.13;;;10.50;70.20;;;;;;5008648;28;20499;-76
2023/01/17 09:00:08;;;;;;;13.00;8.35;;;10.50;69.70;;;;;;5028382;28;20044;-76
2023/01/17 09:02:35;;;;;;;11.90;7.70;;;10.50;69.70;;;;;;5009188;28;20037;-75
2023/01/17 09:05:01;;;;;;;13.63;7.72;;;10.50;69.80;;;;;;5028518;28;20040;-76
2023/01/17 09:07:27;;;;;;;10.55;7.60;;;10.50;69.80;;;;;;5027866;28;20775;-75
2023/01/17 09:09:53;;;;;;;13.65;8.13;;;10.50;69.80;;;;;;5010791;28;20045;-77
2023/01/17 09:12:21;;;;;;;11.23;7.05;;;10.40;69.60;;;;;;5028898;28;20037;-78
2023/01/17 09:14:47;;;;;;;11.77;7.60;;;10.40;69.60;;;;;;5028595;28;20128;-74
2023/01/17 09:17:14;;;;;;;11.75;7.22;;;10.40;69.50;;;;;;5010414;28;20431;-77
2023/01/17 09:19:44;;;;;;;14.60;7.50;;;10.40;69.50;;;;;;5026748;28;20037;-77
2023/01/17 09:22:13;;;;;;;11.00;7.18;;;10.40;69.60;;;;;;5027625;28;20539;-76
2023/01/17 09:24:38;;;;;;;13.50;8.15;;;10.40;69.60;;;;;;5028004;28;20025;-77
2023/01/17 09:27:05;;;;;;;12.52;8.23;;;10.40;69.60;;;;;;5028275;28;20108;-76
2023/01/17 09:29:31;;;;;;;13.10;7.60;;;10.30;69.50;;;;;;5027394;28;20065;-76
2023/01/17 09:31:59;;;;;;;13.65;8.43;;;10.30;69.50;;;;;;5028139;28;20539;-76
2023/01/17 09:34:25;;;;;;;11.60;7.55;;;10.40;69.60;;;;;;5027566;28;20061;-76
2023/01/17 09:36:51;;;;;;;11.23;7.60;;;10.30;69.60;;;;;;5027681;28;20312;-77
2023/01/17 09:39:17;;;;;;;14.02;8.05;;;10.40;69.50;;;;;;5028608;28;20300;-78
2023/01/17 09:41:58;;;;;;;13.18;7.32;;;10.30;69.50;;;;;;5027548;28;20141;-76
2023/01/17 09:44:28;;;;;;;13.65;8.45;;;10.30;69.50;;;;;;5010108;28;20459;-76
2023/01/17 09:47:18;;;;;;;14.52;7.75;;;10.30;69.40;;;;;;5027442;28;20045;-76
2023/01/17 09:49:46;;;;;;;13.23;8.20;;;10.30;69.40;;;;;;5027960;28;20030;-77
2023/01/17 09:52:19;;;;;;;13.50;7.78;;;10.30;69.40;;;;;;5027499;28;20167;-78
2023/01/17 09:54:48;;;;;;;11.25;7.13;;;10.30;69.50;;;;;;5027758;28;20025;-77
2023/01/17 09:57:28;;;;;;;14.75;7.65;;;10.30;69.50;;;;;;5028396;28;20022;-77
2023/01/17 10:00:03;;;;;;;13.50;8.00;;;10.30;69.50;;;;;;5021966;28;20046;-76
2023/01/17 10:02:57;;;;;;;12.77;7.88;;;10.30;69.40;;;;;;5026160;28;20041;-77
2023/01/17 10:05:51;;;;;;;12.98;8.25;;;10.30;69.30;;;;;;5026444;28;20037;-76
2023/01/17 10:08:52;;;;;;;13.77;7.45;;;10.30;69.40;;;;;;5027083;28;20037;-77
2023/01/17 10:11:20;;;;;;;13.60;7.28;;;10.30;69.50;;;;;;5009412;28;20057;-77
2023/01/17 10:13:56;;;;;;;16.92;8.93;;;10.20;69.50;;;;;;5007705;28;20033;-79
2023/01/17 10:16:37;;;;;;;14.02;8.43;;;10.20;69.60;;;;;;5026397;28;20037;-76
2023/01/17 10:19:35;;;;;;;11.68;7.82;;;10.20;69.60;;;;;;5027053;28;20068;-76
2023/01/17 10:22:29;;;;;;;13.02;7.90;;;10.20;69.60;;;;;;5026599;28;20459;-77
2023/01/17 10:25:02;;;;;;;13.57;8.10;;;10.20;69.60;;;;;;5026920;28;20038;-77
2023/01/17 10:27:32;;;;;;;14.07;7.80;;;10.20;69.70;;;;;;5027096;28;20040;-77
2023/01/17 10:30:02;;;;;;;12.70;8.40;;;10.20;69.70;;;;;;5021059;28;20147;-77
2023/01/17 10:32:32;;;;;;;13.05;7.85;;;10.20;69.80;;;;;;5024770;28;20137;-75
2023/01/17 10:35:06;;;;;;;10.73;7.35;;;10.20;69.90;;;;;;5027026;28;20037;-76
2023/01/17 10:37:42;;;;;;;11.75;7.40;;;10.20;69.90;;;;;;5026305;28;20431;-77
2023/01/17 10:40:23;;;;;;;;;;;10.20;69.90;;;;;;5008408;28;20451;-76
2023/01/17 10:43:05;;;;;;;11.52;7.05;;;10.20;69.80;;;;;;5026129;28;19921;-77
2023/01/17 10:45:40;;;;;;;11.88;7.72;;;10.20;69.70;;;;;;5008652;28;20029;-74
2023/01/17 10:48:39;;;;;;;13.50;8.27;;;10.20;69.60;;;;;;5026643;28;20492;-77
2023/01/17 10:51:21;;;;;;;12.48;7.68;;;10.20;69.80;;;;;;5025452;28;20115;-75
2023/01/17 10:53:56;;;;;;;13.10;7.70;;;10.20;69.80;;;;;;5004497;28;20463;-76
2023/01/17 10:56:27;;;;;;;15.07;8.20;;;10.20;69.90;;;;;;5018551;28;20112;-75
2023/01/17 10:59:32;;;;;;;12.75;8.38;;;10.10;69.80;;;;;;5026027;28;20076;-76
2023/01/17 11:01:59;;;;;;;12.48;7.95;;;10.20;69.90;;;;;;5025102;28;20037;-76
2023/01/17 11:04:41;;;;;;;14.15;8.70;;;10.20;69.80;;;;;;4992322;28;20120;-76
2023/01/17 11:07:14;;;;;;;14.98;8.38;;;10.20;69.80;;;;;;5026039;28;20060;-74
2023/01/17 11:09:52;;;;;;;15.05;8.77;;;10.20;69.90;;;;;;5025714;28;20492;-77
2023/01/17 11:12:20;;;;;;;14.65;8.93;;;10.20;69.90;;;;;;5025961;28;20528;-77
2023/01/17 11:15:16;;;;;;;13.38;8.10;;;10.20;69.80;;;;;;5025878;28;20029;-77
2023/01/17 11:17:42;;;;;;;;;;;10.20;69.90;;;;;;5026312;28;20064;-75
2023/01/17 11:20:11;;;;;;;17.33;9.18;;;10.20;69.90;;;;;;5025097;28;19967;-73
2023/01/17 11:22:37;;;;;;;15.93;9.18;;;10.20;70.00;;;;;;5025020;28;20069;-78
2023/01/17 11:25:04;;;;;;;14.55;9.50;;;10.20;69.90;;;;;;5007381;28;20033;-79
2023/01/17 11:27:33;;;;;;;12.32;8.57;;;10.20;69.90;;;;;;5008185;28;20048;-80
2023/01/17 11:30:19;;;;;;;15.35;9.00;;;10.20;69.90;;;;;;5025780;28;20092;-79
2023/01/17 11:33:05;;;;;;;;;;;10.20;70.00;;;;;;5006149;28;20075;-80
2023/01/17 11:35:37;;;;;;;15.57;8.85;;;10.20;69.90;;;;;;5006111;28;19928;-79
2023/01/17 11:38:20;;;;;;;13.75;9.07;;;10.20;70.00;;;;;;5007769;28;20079;-80
2023/01/17 11:40:48;;;;;;;15.27;9.30;;;10.20;70.10;;;;;;5024812;28;20107;-80
2023/01/17 11:43:25;;;;;;;12.73;8.85;;;10.20;70.10;;;;;;5025469;28;20087;-80
2023/01/17 11:46:19;;;;;;;16.42;9.07;;;10.20;70.20;;;;;;5025715;28;20106;-76
2023/01/17 11:48:59;;;;;;;15.93;9.43;;;10.30;70.20;;;;;;5025579;28;20125;-81
2023/01/17 11:51:31;;;;;;;19.08;9.93;;;10.20;70.10;;;;;;5006957;28;20021;-80
2023/01/17 11:54:07;;;;;;;17.95;9.85;;;10.30;70.10;;;;;;5007550;28;20507;-77
2023/01/17 11:56:35;;;;;;;18.85;10.50;;;10.20;70.00;;;;;;5025164;28;20427;-78
2023/01/17 11:59:25;;;;;;;16.58;9.55;;;10.30;70.10;;;;;;5004577;28;20037;-79
2023/01/17 12:02:16;;;;;;;15.80;9.93;;;10.20;69.90;;;;;;5024626;28;20030;-76
2023/01/17 12:04:46;;;;;;;14.93;10.02;;;10.20;69.80;;;;;;5006734;28;20030;-79
2023/01/17 12:07:24;;;;;;;15.70;9.52;;;10.20;69.80;;;;;;5007585;28;20044;-79
2023/01/17 12:10:01;;;;;;;17.92;10.43;;;10.20;69.80;;;;;;5019673;28;20056;-80
2023/01/17 12:15:35;;;;;;;16.23;10.27;;;10.20;69.90;;;;;;5025120;28;20116;-79
2023/01/17 12:18:13;;;;;;;14.55;9.45;;;10.30;69.90;;;;;;5007779;28;20903;-80
2023/01/17 12:20:45;;;;;;;14.73;9.15;;;10.20;69.80;;;;;;5006411;28;20044;-79
2023/01/17 12:23:34;;;;;;;13.88;9.07;;;10.20;69.80;;;;;;5007343;28;20055;-79
2023/01/17 12:26:30;;;;;;;12.85;8.10;;;10.20;69.80;;;;;;4967710;28;20217;-78
2023/01/17 12:29:01;;;;;;;15.45;8.90;;;10.20;69.80;;;;;;4967021;28;20056;-80
2023/01/17 12:31:26;;;;;;;16.00;9.40;;;10.20;69.70;;;;;;4968594;28;20423;-80
2023/01/17 12:34:17;;;;;;;13.88;8.80;;;10.20;69.70;;;;;;4969109;28;20196;-80
2023/01/17 12:36:59;;;;;;;17.30;10.27;;;10.20;70.20;;;;;;4955967;28;20039;-80
2023/01/17 12:39:34;;;;;;;17.55;9.75;;;10.20;69.60;;;;;;4971737;28;20110;-81
2023/01/17 12:42:02;;;;;;;14.15;9.35;;;10.20;69.50;;;;;;4954662;28;20058;-80
2023/01/17 12:44:37;;;;;;;15.57;8.50;;;10.20;69.50;;;;;;4969281;28;20254;-77
2023/01/17 12:47:04;;;;;;;14.48;9.00;;;10.20;69.60;;;;;;4971237;28;20038;-79
2023/01/17 12:49:48;;;;;;;15.00;9.13;;;10.20;69.60;;;;;;4970065;28;20130;-81
2023/01/17 12:52:23;;;;;;;16.73;9.43;;;10.20;69.70;;;;;;4955335;28;20077;-80
2023/01/17 12:55:04;;;;;;;13.63;8.82;;;10.20;69.60;;;;;;4970747;28;20075;-79
2023/01/17 12:57:40;;;;;;;14.95;9.57;;;10.20;69.60;;;;;;4954813;28;20031;-80
2023/01/17 13:00:18;;;;;;;15.27;8.88;;;10.20;69.70;;;;;;4971463;28;20186;-81
2023/01/17 13:02:51;;;;;;;14.65;8.82;;;10.20;69.80;;;;;;4991026;28;20575;-75
2023/01/17 13:05:26;;;;;;;15.93;9.00;;;10.20;69.90;;;;;;5020894;28;20481;-79
2023/01/17 13:08:00;;;;;;;13.63;8.85;;;10.30;70.00;;;;;;5043153;28;20040;-80
2023/01/17 13:10:30;;;;;;;14.68;8.63;;;10.20;70.10;;;;;;5022296;28;20033;-80
2023/01/17 13:13:00;;;;;;;14.60;9.13;;;10.20;70.30;;;;;;5029598;28;20041;-81
2023/01/17 13:15:31;;;;;;;13.98;8.55;;;10.20;70.60;;;;;;5013799;28;20389;-79
2023/01/17 13:18:12;;;;;;;13.63;8.63;;;10.20;70.50;;;;;;5032263;28;20063;-80
2023/01/17 13:21:04;;;;;;;13.27;8.85;;;10.20;70.60;;;;;;5031311;28;20036;-79
2023/01/17 13:23:58;;;;;;;13.80;8.38;;;10.20;70.60;;;;;;5018930;28;20124;-81
2023/01/17 13:26:30;;;;;;;16.70;9.25;;;10.20;70.80;;;;;;5029456;28;20038;-81
2023/01/17 13:29:19;;;;;;;14.60;9.27;;;10.20;70.80;;;;;;4997738;28;20456;-81
2023/01/17 13:31:59;;;;;;;13.82;8.60;;;10.20;71.00;;;;;;5030081;28;20072;-78
2023/01/17 13:34:46;;;;;;;13.82;8.85;;;10.20;71.10;;;;;;5014264;28;20465;-79
2023/01/17 13:37:50;;;;;;;14.55;8.13;;;10.20;71.00;;;;;;5010153;28;20041;-80
2023/01/17 13:40:32;;;;;;;13.65;8.63;;;10.20;71.00;;;;;;5013522;28;20033;-80
2023/01/17 13:43:01;;;;;;;13.88;8.13;;;10.20;71.00;;;;;;5031100;28;20069;-79
2023/01/17 13:45:37;;;;;;;13.50;7.80;;;10.20;71.00;;;;;;5031344;28;20037;-80
2023/01/17 13:48:13;;;;;;;14.88;8.25;;;10.20;71.00;;;;;;5031087;28;20048;-78
2023/01/17 13:50:39;;;;;;;12.07;7.80;;;10.20;71.00;;;;;;5031825;28;20033;-78
2023/01/17 13:53:32;;;;;;;13.15;8.45;;;10.20;70.90;;;;;;5013610;28;20041;-80
2023/01/17 13:56:09;;;;;;;11.73;7.38;;;10.20;70.90;;;;;;5030902;28;20072;-79
2023/01/17 13:59:02;;;;;;;14.02;7.72;;;10.20;71.00;;;;;;5031990;28;20478;-85
2023/01/17 14:01:31;;;;;;;12.43;7.75;;;10.20;71.00;;;;;;5013342;28;20076;-78
2023/01/17 14:03:56;;;;;;;14.00;8.43;;;10.20;70.90;;;;;;5031585;28;20037;-80
2023/01/17 14:06:35;;;;;;;11.13;7.82;;;10.20;70.90;;;;;;5030627;28;20164;-79
2023/01/17 14:09:06;;;;;;;14.02;7.88;;;10.20;70.90;;;;;;5013922;28;20115;-80
2023/01/17 14:11:35;;;;;;;10.43;7.03;;;10.20;70.80;;;;;;5014209;28;20034;-81
2023/01/17 14:14:42;;;;;;;12.52;7.78;;;10.20;70.90;;;;;;5013112;28;20045;-80
2023/01/17 14:17:26;;;;;;;11.93;7.85;;;10.20;71.00;;;;;;4988485;28;20856;-79
2023/01/17 14:20:17;;;;;;;12.55;8.02;;;10.30;70.90;;;;;;4988331;28;20042;-81
2023/01/17 14:22:49;;;;;;;12.75;7.90;;;10.30;70.80;;;;;;4971423;28;20095;-81
2023/01/17 14:25:21;;;;;;;12.98;6.93;;;10.30;70.70;;;;;;4967571;28;20030;-78
2023/01/17 14:27:52;;;;;;;14.25;8.25;;;10.30;70.70;;;;;;4983747;28;20042;-78
2023/01/17 14:30:30;;;;;;;14.32;7.30;;;10.30;71.10;;;;;;4968838;28;20040;-81
2023/01/17 14:33:09;;;;;;;15.93;7.60;;;10.30;71.00;;;;;;4982272;28;20069;-80